Time;durP1;ratioP1;P1;durP2;ratioP2;P2;SDS_P1;SDS_P2;PMS_P1;PMS_P2;Temp;Humidity;BMP_temperature;BMP_pressure;BME280_temperature;BME280_humidity;BME280_pressure;Samples;Min_cycle;Max_cycle;Signal;HPM_P1;HPM_P2
2022/09/06 00:01:39;;;;;;;5.80;5.40;;;20.70;99.90;;;;;;10504032;28;20307;-80
2022/09/06 00:06:42;;;;;;;5.43;4.90;;;20.60;99.90;;;;;;10497252;28;20256;-80
2022/09/06 00:11:45;;;;;;;12.13;5.40;;;20.60;99.90;;;;;;10501588;28;20295;-81
2022/09/06 00:16:47;;;;;;;5.87;5.37;;;20.60;99.90;;;;;;10494966;28;20227;-80
2022/09/06 00:21:50;;;;;;;5.37;5.03;;;20.50;99.90;;;;;;10501713;28;20217;-80
2022/09/06 00:26:52;;;;;;;6.10;5.60;;;20.50;99.90;;;;;;10494802;28;20248;-80
2022/09/06 00:31:54;;;;;;;5.20;4.80;;;20.50;99.90;;;;;;10493190;28;20270;-80
2022/09/06 00:36:58;;;;;;;6.10;5.70;;;20.50;99.90;;;;;;10494369;28;20201;-79
2022/09/06 00:42:00;;;;;;;5.30;5.00;;;20.40;99.90;;;;;;10493706;28;20220;-80
2022/09/06 00:47:02;;;;;;;5.90;5.50;;;20.30;99.90;;;;;;10481538;28;20263;-80
2022/09/06 00:52:09;;;;;;;5.57;5.17;;;20.30;99.90;;;;;;10478584;28;20243;-80
2022/09/06 00:57:13;;;;;;;5.70;5.20;;;20.30;99.90;;;;;;10485422;28;20695;-80
2022/09/06 01:02:15;;;;;;;5.47;5.17;;;20.30;99.90;;;;;;10475962;28;20288;-79
2022/09/06 01:07:30;;;;;;;5.87;5.37;;;20.30;99.90;;;;;;10473456;28;20677;-80
2022/09/06 01:12:44;;;;;;;6.10;5.60;;;20.20;99.90;;;;;;10475276;28;20787;-80
2022/09/06 01:18:10;;;;;;;6.03;5.70;;;20.20;99.90;;;;;;10480578;28;20279;-80
2022/09/06 01:23:46;;;;;;;5.80;5.40;;;20.20;99.90;;;;;;10481289;28;20314;-80
2022/09/06 01:28:52;;;;;;;5.83;5.43;;;20.10;99.90;;;;;;10493690;28;20216;-79
2022/09/06 01:34:16;;;;;;;5.13;4.63;;;20.10;99.90;;;;;;10499820;28;20255;-79
2022/09/06 01:39:23;;;;;;;5.90;5.60;;;20.10;99.90;;;;;;10503271;28;20512;-80
2022/09/06 01:44:30;;;;;;;5.30;4.90;;;20.10;99.90;;;;;;10508843;28;20228;-80
2022/09/06 01:49:44;;;;;;;5.80;5.40;;;20.10;99.90;;;;;;10506753;28;20263;-80
2022/09/06 01:55:05;;;;;;;5.67;5.17;;;20.10;99.90;;;;;;10499666;28;20261;-80
2022/09/06 02:00:11;;;;;;;5.77;5.37;;;20.00;99.90;;;;;;10478984;28;20250;-80
2022/09/06 02:05:22;;;;;;;5.63;5.23;;;20.10;99.90;;;;;;10500749;28;20205;-80
2022/09/06 02:10:30;;;;;;;5.67;5.27;;;20.10;99.90;;;;;;10500923;28;20197;-80
2022/09/06 02:15:36;;;;;;;5.83;5.20;;;20.00;99.90;;;;;;10497600;28;20191;-79
2022/09/06 02:20:43;;;;;;;5.90;5.50;;;20.00;99.90;;;;;;10508745;28;20216;-78
2022/09/06 02:25:51;;;;;;;7.00;6.50;;;19.90;99.90;;;;;;10501773;28;20629;-79
2022/09/06 02:31:00;;;;;;;7.57;6.97;;;20.00;99.90;;;;;;10502308;28;20217;-80
2022/09/06 02:36:06;;;;;;;7.00;6.50;;;20.10;99.90;;;;;;10497901;28;20242;-79
2022/09/06 02:41:09;;;;;;;6.37;5.87;;;20.20;99.90;;;;;;10501681;28;20634;-80
2022/09/06 02:46:12;;;;;;;5.80;5.40;;;20.30;99.90;;;;;;10502215;28;20216;-79
2022/09/06 02:51:14;;;;;;;7.73;6.20;;;20.40;99.90;;;;;;10504145;28;20307;-79
2022/09/06 02:56:16;;;;;;;7.00;6.60;;;20.50;99.90;;;;;;10501665;28;20232;-80
2022/09/06 03:01:20;;;;;;;13.57;12.17;;;20.40;99.90;;;;;;10501755;28;20216;-80
2022/09/06 03:06:22;;;;;;;17.83;16.20;;;20.30;99.90;;;;;;10506505;28;20208;-78
2022/09/06 03:11:24;;;;;;;16.70;15.53;;;20.10;99.90;;;;;;10505714;28;20220;-79
2022/09/06 03:16:28;;;;;;;17.07;15.97;;;19.90;99.90;;;;;;10487309;28;20545;-79
2022/09/06 03:21:30;;;;;;;17.87;16.63;;;19.70;99.90;;;;;;10504625;28;20299;-80
2022/09/06 03:26:32;;;;;;;17.80;16.70;;;19.50;99.90;;;;;;10502105;28;20320;-79
2022/09/06 03:31:35;;;;;;;18.40;16.80;;;19.40;99.90;;;;;;10504194;28;20224;-80
2022/09/06 03:36:37;;;;;;;18.60;17.30;;;19.30;99.90;;;;;;10509040;28;20227;-79
2022/09/06 03:41:40;;;;;;;16.47;15.17;;;19.30;99.90;;;;;;10504590;28;20224;-80
2022/09/06 03:46:43;;;;;;;17.67;16.07;;;19.30;99.90;;;;;;10502873;28;20220;-80
2022/09/06 03:51:45;;;;;;;16.87;15.60;;;19.30;99.90;;;;;;10504910;28;20247;-80
2022/09/06 03:56:47;;;;;;;18.90;17.50;;;19.20;99.90;;;;;;10505476;28;20200;-80
2022/09/06 04:01:50;;;;;;;14.63;13.53;;;19.10;99.90;;;;;;10499783;28;20212;-79
2022/09/06 04:06:52;;;;;;;16.43;15.13;;;19.10;99.90;;;;;;10506623;28;20216;-79
2022/09/06 04:11:55;;;;;;;17.73;16.57;;;19.10;99.90;;;;;;10512941;28;20307;-80
2022/09/06 04:16:58;;;;;;;12.83;12.03;;;19.00;99.90;;;;;;10496228;28;20204;-79
2022/09/06 04:22:00;;;;;;;16.93;15.83;;;19.00;99.90;;;;;;10496670;28;20216;-79
2022/09/06 04:27:02;;;;;;;15.30;14.20;;;19.00;99.90;;;;;;10488834;28;20574;-80
2022/09/06 04:32:06;;;;;;;17.50;16.30;;;19.10;99.90;;;;;;10501127;28;20311;-80
2022/09/06 04:37:08;;;;;;;17.20;16.20;;;19.00;99.90;;;;;;10496520;28;20341;-79
2022/09/06 04:42:11;;;;;;;13.97;12.97;;;19.00;99.90;;;;;;10494334;28;20659;-80
2022/09/06 04:47:17;;;;;;;16.07;14.97;;;19.10;99.90;;;;;;10502069;28;20228;-80
2022/09/06 04:52:19;;;;;;;15.40;14.50;;;19.10;99.90;;;;;;10496276;28;20220;-80
2022/09/06 04:57:21;;;;;;;17.20;16.17;;;19.10;99.90;;;;;;10496825;28;20227;-79
2022/09/06 05:02:24;;;;;;;13.73;12.83;;;19.20;99.90;;;;;;10499595;28;20266;-80
2022/09/06 05:07:27;;;;;;;14.80;13.80;;;19.20;99.90;;;;;;10507986;28;20216;-80
2022/09/06 05:12:29;;;;;;;17.83;16.53;;;19.20;99.90;;;;;;10509727;28;20278;-79
2022/09/06 05:17:32;;;;;;;17.07;15.87;;;19.20;99.90;;;;;;10516813;28;20247;-79
2022/09/06 05:22:34;;;;;;;12.77;11.93;;;19.30;99.90;;;;;;10510863;28;20266;-79
2022/09/06 05:27:36;;;;;;;15.93;14.93;;;19.40;99.90;;;;;;10511477;28;20216;-79
2022/09/06 05:32:40;;;;;;;15.70;14.70;;;19.40;99.90;;;;;;10511156;28;20240;-79
2022/09/06 05:37:42;;;;;;;14.10;13.30;;;19.40;99.90;;;;;;10506084;28;20231;-79
2022/09/06 05:42:44;;;;;;;15.23;13.97;;;19.40;99.90;;;;;;10512111;28;20232;-80
2022/09/06 05:47:47;;;;;;;14.90;14.00;;;19.40;99.90;;;;;;10517624;28;20355;-79
2022/09/06 05:52:49;;;;;;;14.17;13.13;;;19.40;99.90;;;;;;10520108;28;20217;-79
2022/09/06 05:57:51;;;;;;;14.30;13.40;;;19.40;99.90;;;;;;10519828;28;20201;-80
2022/09/06 06:02:55;;;;;;;15.33;14.40;;;19.50;99.90;;;;;;10523561;28;20626;-80
2022/09/06 06:07:58;;;;;;;15.90;14.90;;;19.50;99.90;;;;;;10524446;28;20220;-80
2022/09/06 06:13:00;;;;;;;14.20;13.10;;;19.60;99.90;;;;;;10522705;28;20223;-79
2022/09/06 06:18:03;;;;;;;15.10;14.20;;;19.60;99.90;;;;;;10520361;28;20683;-80
2022/09/06 06:23:06;;;;;;;15.13;13.80;;;19.70;99.90;;;;;;10513983;28;20225;-80
2022/09/06 06:28:08;;;;;;;15.33;14.30;;;19.90;99.90;;;;;;10504646;28;20337;-80
2022/09/06 06:33:11;;;;;;;15.53;14.33;;;20.00;99.90;;;;;;10506892;28;20691;-80
2022/09/06 06:38:13;;;;;;;13.67;12.67;;;20.10;99.90;;;;;;10517260;28;20215;-80
2022/09/06 06:43:15;;;;;;;15.20;14.13;;;20.20;99.90;;;;;;10514580;28;20220;-80
2022/09/06 06:48:19;;;;;;;14.77;13.53;;;20.40;99.90;;;;;;10504489;28;20295;-80
2022/09/06 06:53:21;;;;;;;14.27;13.33;;;20.40;99.90;;;;;;10518976;28;20228;-80
2022/09/06 06:58:23;;;;;;;15.00;14.00;;;20.30;99.90;;;;;;10509143;28;20200;-80
2022/09/06 07:03:26;;;;;;;14.03;12.93;;;20.30;99.90;;;;;;10505244;28;20775;-80
2022/09/06 07:08:28;;;;;;;14.50;13.60;;;20.50;99.90;;;;;;10494229;28;20223;-79
2022/09/06 07:13:32;;;;;;;14.77;13.77;;;20.70;99.90;;;;;;10505389;28;20232;-79
2022/09/06 07:18:36;;;;;;;14.93;13.90;;;20.80;99.90;;;;;;10505354;28;20196;-80
2022/09/06 07:23:38;;;;;;;14.63;13.40;;;20.90;99.90;;;;;;10504223;28;20282;-80
2022/09/06 07:28:40;;;;;;;13.97;13.07;;;20.90;99.90;;;;;;10505496;28;20220;-80
2022/09/06 07:33:44;;;;;;;12.47;11.63;;;21.00;99.90;;;;;;10513278;28;20719;-80
2022/09/06 07:38:49;;;;;;;12.67;11.77;;;21.00;99.90;;;;;;10505713;28;20547;-81
2022/09/06 07:43:54;;;;;;;11.53;10.73;;;21.00;99.90;;;;;;10500130;28;20214;-81
2022/09/06 07:48:58;;;;;;;13.10;12.10;;;20.90;99.90;;;;;;10508370;28;20213;-81
2022/09/06 07:54:00;;;;;;;10.93;10.10;;;20.90;99.90;;;;;;10507203;28;20246;-81
2022/09/06 07:59:02;;;;;;;8.83;7.97;;;20.90;99.90;;;;;;10498702;28;20220;-82
2022/09/06 08:04:07;;;;;;;9.60;8.70;;;21.00;99.90;;;;;;10503168;28;20271;-82
2022/09/06 08:09:10;;;;;;;9.37;8.87;;;21.10;99.90;;;;;;10504347;28;20227;-81
2022/09/06 08:14:12;;;;;;;9.93;9.17;;;21.20;99.90;;;;;;10508653;28;20695;-81
2022/09/06 08:19:17;;;;;;;9.30;8.70;;;21.30;99.90;;;;;;10517380;28;20734;-81
2022/09/06 08:24:19;;;;;;;11.53;9.03;;;21.30;99.90;;;;;;10505939;28;20688;-81
2022/09/06 08:29:21;;;;;;;9.40;8.63;;;21.40;99.90;;;;;;10504282;28;20306;-81
2022/09/06 08:34:24;;;;;;;9.70;9.00;;;21.50;99.90;;;;;;10503224;28;20246;-80
2022/09/06 08:39:26;;;;;;;8.93;8.23;;;21.60;99.90;;;;;;10505038;28;20230;-81
2022/09/06 08:44:34;;;;;;;7.40;6.80;;;21.80;99.90;;;;;;10503737;28;20220;-81
2022/09/06 08:49:41;;;;;;;7.70;7.13;;;21.90;99.90;;;;;;10503804;28;20220;-81
2022/09/06 08:54:53;;;;;;;8.77;8.00;;;22.00;99.90;;;;;;10509738;28;20343;-81
2022/09/06 09:00:00;;;;;;;8.90;8.40;;;22.10;99.90;;;;;;10503015;28;20189;-81
2022/09/06 09:05:11;;;;;;;8.10;7.60;;;22.30;99.90;;;;;;10503923;28;20669;-81
2022/09/06 09:10:17;;;;;;;7.57;7.07;;;22.40;99.90;;;;;;10502913;28;20311;-80
2022/09/06 09:15:21;;;;;;;11.90;7.80;;;22.60;99.90;;;;;;10496532;28;20239;-81
2022/09/06 09:20:25;;;;;;;8.80;7.87;;;22.70;99.90;;;;;;10503915;28;20227;-81
2022/09/06 09:25:32;;;;;;;7.60;6.90;;;23.00;99.90;;;;;;10504746;28;20212;-81
2022/09/06 09:30:46;;;;;;;8.33;6.10;;;23.50;99.90;;;;;;10490625;28;20224;-82
2022/09/06 09:35:52;;;;;;;7.63;7.10;;;24.00;99.90;;;;;;10501369;28;20258;-81
2022/09/06 09:40:57;;;;;;;10.00;9.03;;;24.40;99.90;;;;;;10514719;28;20656;-81
2022/09/06 09:46:29;;;;;;;9.37;8.57;;;24.70;99.90;;;;;;10512050;28;20699;-81
2022/09/06 09:51:34;;;;;;;7.70;7.10;;;24.80;99.90;;;;;;10505923;28;20596;-81
2022/09/06 09:56:46;;;;;;;6.27;5.77;;;25.10;99.90;;;;;;10522966;28;20196;-81
2022/09/06 10:01:49;;;;;;;7.17;6.67;;;25.40;99.90;;;;;;10513975;28;20533;-82
2022/09/06 10:06:53;;;;;;;7.77;7.13;;;25.70;99.90;;;;;;10515649;28;20204;-82
2022/09/06 10:11:57;;;;;;;8.23;7.63;;;25.90;99.90;;;;;;10519051;28;20216;-80
2022/09/06 10:17:00;;;;;;;7.60;6.97;;;25.90;99.90;;;;;;10518578;28;20203;-80
2022/09/06 10:22:22;;;;;;;7.83;7.17;;;25.80;99.90;;;;;;10518232;28;20231;-81
2022/09/06 10:27:26;;;;;;;7.63;6.57;;;25.70;99.90;;;;;;10520918;28;20208;-82
2022/09/06 10:32:39;;;;;;;5.90;5.30;;;25.60;99.90;;;;;;10519462;28;20228;-81
2022/09/06 10:37:52;;;;;;;9.23;5.23;;;25.50;99.90;;;;;;10532165;28;20250;-81
2022/09/06 10:42:57;;;;;;;8.77;5.90;;;25.60;99.90;;;;;;10521439;28;20219;-81
2022/09/06 10:48:03;;;;;;;8.20;7.40;;;25.80;99.90;;;;;;10520787;28;20247;-81
2022/09/06 10:53:13;;;;;;;7.40;6.70;;;25.90;99.90;;;;;;10520694;28;20231;-81
2022/09/06 10:58:22;;;;;;;11.17;6.53;;;26.00;99.90;;;;;;10521840;28;20196;-82
2022/09/06 11:03:29;;;;;;;7.23;6.53;;;26.20;99.90;;;;;;10508863;28;20216;-82
2022/09/06 11:08:39;;;;;;;4.83;4.33;;;26.20;99.90;;;;;;10504102;28;20220;-82
2022/09/06 11:13:41;;;;;;;8.57;7.27;;;26.30;99.90;;;;;;10500098;28;20295;-81
2022/09/06 11:18:50;;;;;;;9.90;5.90;;;26.40;99.90;;;;;;10506167;28;20192;-81
2022/09/06 11:24:04;;;;;;;7.37;6.70;;;26.50;99.90;;;;;;10502057;28;20218;-81
2022/09/06 11:29:09;;;;;;;7.90;7.30;;;26.50;99.90;;;;;;10516630;28;20316;-81
2022/09/06 11:34:18;;;;;;;9.03;8.10;;;26.50;99.90;;;;;;10524076;28;20259;-81
2022/09/06 11:39:34;;;;;;;8.13;6.50;;;26.50;99.90;;;;;;10525523;28;20232;-81
2022/09/06 11:45:12;;;;;;;11.23;9.87;;;26.40;99.90;;;;;;10517350;28;20223;-80
2022/09/06 11:50:25;;;;;;;10.90;7.30;;;26.20;99.90;;;;;;10508551;28;20333;-80
2022/09/06 11:55:38;;;;;;;8.30;7.30;;;26.00;99.90;;;;;;10513971;28;20188;-80
2022/09/06 12:00:40;;;;;;;9.90;7.70;;;25.90;99.90;;;;;;10521333;28;20208;-80
2022/09/06 12:06:14;;;;;;;7.10;6.50;;;25.80;99.90;;;;;;10523637;28;20222;-80
2022/09/06 12:11:28;;;;;;;7.60;7.10;;;25.70;99.90;;;;;;10513085;28;20342;-81
2022/09/06 12:17:08;;;;;;;7.73;7.10;;;25.70;99.90;;;;;;10495929;28;20223;-81
2022/09/06 12:22:44;;;;;;;9.13;6.63;;;25.70;99.90;;;;;;10506176;28;20258;-80
2022/09/06 12:27:56;;;;;;;8.33;7.60;;;25.80;99.90;;;;;;10493921;28;20220;-81
2022/09/06 12:33:00;;;;;;;9.07;6.97;;;26.00;99.90;;;;;;10514050;28;20669;-81
2022/09/06 12:38:03;;;;;;;6.90;6.40;;;26.20;99.90;;;;;;10509919;28;20264;-81
2022/09/06 12:43:10;;;;;;;5.70;5.30;;;26.40;99.90;;;;;;10504683;28;20668;-82
2022/09/06 12:48:24;;;;;;;9.50;6.03;;;26.50;99.90;;;;;;10504337;28;20238;-81
2022/09/06 12:53:26;;;;;;;8.67;6.50;;;26.50;99.90;;;;;;10504359;28;20223;-82
2022/09/06 12:58:30;;;;;;;10.67;7.47;;;26.40;99.90;;;;;;10501687;28;20207;-81
2022/09/06 13:03:37;;;;;;;7.53;7.00;;;26.10;99.90;;;;;;10507896;28;20221;-81
2022/09/06 13:08:44;;;;;;;7.50;5.40;;;25.80;99.90;;;;;;10503289;28;20251;-81
2022/09/06 13:13:50;;;;;;;8.13;7.53;;;25.60;99.90;;;;;;10511845;28;20225;-81
2022/09/06 13:18:53;;;;;;;10.50;7.80;;;25.40;99.90;;;;;;10513182;28;20200;-80
2022/09/06 13:23:57;;;;;;;8.80;8.07;;;25.20;99.90;;;;;;10513506;28;20276;-81
2022/09/06 13:29:11;;;;;;;8.57;7.97;;;25.00;99.90;;;;;;10509152;28;20216;-81
2022/09/06 13:34:20;;;;;;;8.57;7.97;;;24.90;99.90;;;;;;10518556;28;20350;-80
2022/09/06 13:39:33;;;;;;;9.93;8.93;;;24.70;99.90;;;;;;10509751;28;20756;-80
2022/09/06 13:44:38;;;;;;;9.40;8.50;;;24.60;99.90;;;;;;10509272;28;20224;-82
2022/09/06 13:49:40;;;;;;;8.70;7.03;;;24.50;99.90;;;;;;10509672;28;20220;-82
2022/09/06 13:54:42;;;;;;;8.27;7.67;;;24.50;99.90;;;;;;10509309;28;20217;-82
2022/09/06 13:59:45;;;;;;;9.00;8.20;;;24.40;99.90;;;;;;10509163;28;20284;-82
2022/09/06 14:04:47;;;;;;;9.07;8.27;;;24.40;99.90;;;;;;10527467;28;20213;-81
2022/09/06 14:09:50;;;;;;;10.17;9.47;;;24.20;99.90;;;;;;10519019;28;20223;-82
2022/09/06 14:14:54;;;;;;;9.43;8.93;;;24.00;99.90;;;;;;10539782;22;20224;-80
2022/09/06 14:19:56;;;;;;;10.50;9.63;;;23.90;99.90;;;;;;10493368;28;20243;-79
2022/09/06 14:24:58;;;;;;;9.87;9.07;;;23.80;99.90;;;;;;10484616;28;20217;-79
2022/09/06 14:30:01;;;;;;;9.93;9.03;;;23.70;99.90;;;;;;10482535;28;20221;-79
2022/09/06 14:35:04;;;;;;;15.23;9.10;;;23.70;99.90;;;;;;10470995;28;20256;-79
2022/09/06 14:40:09;;;;;;;9.30;8.50;;;23.70;99.90;;;;;;10466058;28;20212;-79
2022/09/06 14:45:13;;;;;;;9.80;9.10;;;23.70;99.90;;;;;;10464580;28;20217;-79
2022/09/06 14:50:15;;;;;;;9.10;8.27;;;23.70;99.90;;;;;;10484203;28;20783;-78
2022/09/06 14:55:17;;;;;;;13.30;9.43;;;23.70;99.90;;;;;;10486913;28;20231;-79
2022/09/06 15:00:21;;;;;;;9.50;8.70;;;23.70;99.90;;;;;;10463441;28;20599;-79
2022/09/06 15:05:23;;;;;;;10.80;9.07;;;23.80;99.90;;;;;;10473978;28;20671;-79
2022/09/06 15:10:25;;;;;;;9.20;8.40;;;23.80;99.90;;;;;;10488370;28;20221;-79
2022/09/06 15:15:29;;;;;;;9.60;8.70;;;23.80;99.90;;;;;;10467701;28;20722;-79
2022/09/06 15:20:31;;;;;;;9.40;8.80;;;23.80;99.90;;;;;;10469678;28;20260;-78
2022/09/06 15:25:33;;;;;;;17.80;8.93;;;23.90;99.90;;;;;;10462395;28;20213;-79
2022/09/06 15:30:39;;;;;;;9.60;8.77;;;24.00;99.90;;;;;;10468719;28;20667;-79
2022/09/06 15:35:42;;;;;;;8.20;7.70;;;24.20;99.90;;;;;;10464044;28;20271;-78
2022/09/06 15:40:44;;;;;;;7.67;7.17;;;24.30;99.90;;;;;;10443789;28;20197;-79
2022/09/06 15:45:49;;;;;;;7.17;6.77;;;24.30;99.90;;;;;;10462987;28;20208;-79
2022/09/06 15:50:52;;;;;;;6.60;6.20;;;24.40;99.90;;;;;;10457078;28;20246;-79
2022/09/06 15:55:58;;;;;;;7.47;6.80;;;24.30;99.90;;;;;;10451384;28;20259;-79
2022/09/06 16:01:04;;;;;;;7.37;6.77;;;24.30;99.90;;;;;;10446496;28;20271;-79
2022/09/06 16:06:09;;;;;;;8.07;7.27;;;24.20;99.90;;;;;;10450618;28;20205;-79
2022/09/06 16:11:13;;;;;;;7.03;6.50;;;24.20;99.90;;;;;;10454130;28;20221;-79
2022/09/06 16:16:17;;;;;;;8.00;7.20;;;24.20;99.90;;;;;;10443530;28;20198;-79
2022/09/06 16:21:22;;;;;;;6.30;5.90;;;24.30;99.90;;;;;;10423185;28;20655;-79
2022/09/06 16:26:27;;;;;;;6.87;6.47;;;24.30;99.90;;;;;;10419603;28;20711;-79
2022/09/06 16:31:32;;;;;;;7.63;7.13;;;24.30;99.90;;;;;;10437107;28;20245;-79
2022/09/06 16:36:34;;;;;;;6.63;6.13;;;24.30;99.90;;;;;;10439186;28;20279;-79
2022/09/06 16:41:39;;;;;;;7.10;6.60;;;24.30;99.90;;;;;;10436387;28;20226;-79
2022/09/06 16:46:44;;;;;;;4.70;4.50;;;24.20;99.90;;;;;;10438534;28;20585;-79
2022/09/06 16:51:47;;;;;;;6.30;5.83;;;24.20;99.90;;;;;;10425334;28;20229;-79
2022/09/06 16:56:49;;;;;;;6.43;5.77;;;24.10;99.90;;;;;;10412872;28;20208;-78
2022/09/06 17:01:54;;;;;;;5.90;5.57;;;24.00;99.90;;;;;;10456534;28;20697;-78
2022/09/06 17:06:56;;;;;;;5.80;5.30;;;24.00;99.90;;;;;;10437814;28;20206;-78
2022/09/06 17:11:59;;;;;;;6.30;5.80;;;23.90;99.90;;;;;;10428320;28;20224;-79
2022/09/06 17:17:05;;;;;;;6.30;5.90;;;23.80;99.90;;;;;;10440928;28;20197;-79
2022/09/06 17:22:08;;;;;;;7.10;6.43;;;23.80;99.90;;;;;;10458484;28;20237;-79
2022/09/06 17:27:11;;;;;;;6.57;5.73;;;23.80;99.90;;;;;;10463968;28;20197;-80
2022/09/06 17:32:14;;;;;;;7.60;6.27;;;23.70;99.90;;;;;;10444318;28;20236;-79
2022/09/06 17:37:16;;;;;;;7.43;6.70;;;23.60;99.90;;;;;;10460082;28;20201;-80
2022/09/06 17:42:19;;;;;;;7.23;6.53;;;23.50;99.90;;;;;;10475180;28;20209;-80
2022/09/06 17:47:22;;;;;;;7.20;6.60;;;23.30;99.90;;;;;;10473823;28;20201;-80
2022/09/06 17:52:24;;;;;;;7.33;6.63;;;23.20;99.90;;;;;;10461905;28;20224;-80
2022/09/06 17:57:27;;;;;;;7.33;6.67;;;23.10;99.90;;;;;;10456052;28;20554;-80
2022/09/06 18:02:30;;;;;;;7.70;7.10;;;23.00;99.90;;;;;;10459451;28;20223;-80
2022/09/06 18:07:32;;;;;;;6.90;6.10;;;22.90;99.90;;;;;;10466598;28;20208;-79
2022/09/06 18:12:35;;;;;;;12.07;6.80;;;22.80;99.90;;;;;;10464331;28;20232;-79
2022/09/06 18:17:38;;;;;;;8.30;7.60;;;22.80;99.90;;;;;;10447612;28;20209;-79
2022/09/06 18:22:40;;;;;;;9.33;6.90;;;22.70;99.90;;;;;;10460693;28;20496;-80
2022/09/06 18:27:42;;;;;;;7.40;6.90;;;22.60;99.90;;;;;;10460514;28;20732;-80
2022/09/06 18:32:46;;;;;;;7.30;6.80;;;22.60;99.90;;;;;;10463676;28;20296;-80
2022/09/06 18:37:52;;;;;;;6.63;6.13;;;22.50;99.90;;;;;;10458451;28;20201;-81
2022/09/06 18:42:54;;;;;;;7.30;6.70;;;22.50;99.90;;;;;;10446060;28;20298;-80
2022/09/06 18:47:58;;;;;;;6.90;6.40;;;22.40;99.90;;;;;;10453954;28;20297;-80
2022/09/06 18:53:00;;;;;;;8.13;7.53;;;22.30;99.90;;;;;;10456583;28;20225;-81
2022/09/06 18:58:02;;;;;;;8.33;6.53;;;22.30;99.90;;;;;;10462994;28;20259;-80
2022/09/06 19:03:06;;;;;;;7.53;5.43;;;22.20;99.90;;;;;;10462260;28;20224;-80
2022/09/06 19:08:08;;;;;;;9.33;8.43;;;22.20;99.90;;;;;;10443483;28;20209;-81
2022/09/06 19:13:10;;;;;;;9.13;7.57;;;22.10;99.90;;;;;;10463297;28;20748;-81
2022/09/06 19:18:14;;;;;;;9.00;8.30;;;22.00;99.90;;;;;;10454496;28;20201;-81
2022/09/06 19:23:16;;;;;;;8.97;7.90;;;22.00;99.90;;;;;;10446754;28;20263;-81
2022/09/06 19:28:18;;;;;;;8.00;7.40;;;21.90;99.90;;;;;;10454439;28;20209;-81
2022/09/06 19:33:22;;;;;;;7.47;6.57;;;21.90;99.90;;;;;;10452914;28;20283;-81
2022/09/06 19:38:24;;;;;;;6.90;6.20;;;21.90;99.90;;;;;;10459051;28;20246;-81
2022/09/06 19:43:26;;;;;;;5.97;5.47;;;21.90;99.90;;;;;;10464584;28;20813;-81
2022/09/06 19:48:30;;;;;;;8.73;6.37;;;21.80;99.90;;;;;;10448903;28;20194;-81
2022/09/06 19:53:32;;;;;;;6.83;6.07;;;21.80;99.90;;;;;;10469985;28;20228;-81
2022/09/06 19:58:34;;;;;;;6.00;5.50;;;21.70;99.90;;;;;;10463369;28;20208;-81
2022/09/06 20:03:40;;;;;;;6.13;5.73;;;21.70;99.90;;;;;;10459612;28;20232;-81
2022/09/06 20:08:42;;;;;;;6.67;6.07;;;21.70;99.90;;;;;;10456225;28;20288;-81
2022/09/06 20:13:45;;;;;;;6.70;6.00;;;21.60;99.90;;;;;;10513618;22;20238;-81
2022/09/06 20:18:48;;;;;;;8.03;7.13;;;21.60;99.90;;;;;;10538005;28;20200;-82
2022/09/06 20:24:00;;;;;;;7.73;6.83;;;21.60;99.90;;;;;;10533727;28;20239;-81
2022/09/06 20:29:03;;;;;;;6.83;6.33;;;21.60;99.90;;;;;;10500508;28;20224;-81
2022/09/06 20:34:07;;;;;;;6.63;6.07;;;21.60;99.90;;;;;;10533429;28;20220;-80
2022/09/06 20:39:09;;;;;;;7.07;6.37;;;21.60;99.90;;;;;;10529290;28;20196;-80
2022/09/06 20:44:11;;;;;;;7.53;6.77;;;21.60;99.90;;;;;;10536916;28;20296;-81
2022/09/06 20:49:17;;;;;;;8.40;5.97;;;21.60;99.90;;;;;;10532805;28;20301;-80
2022/09/06 20:54:19;;;;;;;5.97;5.57;;;21.60;99.90;;;;;;10511533;28;20637;-80
2022/09/06 20:59:22;;;;;;;5.57;5.27;;;21.60;99.90;;;;;;10519808;28;20760;-80
2022/09/06 21:04:25;;;;;;;6.47;5.90;;;21.60;99.90;;;;;;10526122;28;20277;-80
2022/09/06 21:09:28;;;;;;;7.30;6.60;;;21.60;99.90;;;;;;10528575;28;20582;-81
2022/09/06 21:14:30;;;;;;;8.57;7.70;;;21.60;99.90;;;;;;10525889;28;20234;-81
2022/09/06 21:19:35;;;;;;;7.50;5.77;;;21.60;99.90;;;;;;10531705;28;20191;-81
2022/09/06 21:24:37;;;;;;;9.27;6.80;;;21.60;99.90;;;;;;10521799;28;20284;-81
2022/09/06 21:29:39;;;;;;;6.53;5.93;;;21.60;99.90;;;;;;10515252;28;20801;-80
2022/09/06 21:34:42;;;;;;;5.63;5.27;;;21.60;99.90;;;;;;10539999;28;20694;-81
2022/09/06 21:39:45;;;;;;;7.07;6.50;;;21.50;99.90;;;;;;10523945;28;20192;-80
2022/09/06 21:44:47;;;;;;;5.90;5.50;;;21.50;99.90;;;;;;10534342;28;20220;-80
2022/09/06 21:49:50;;;;;;;6.40;5.80;;;21.50;99.90;;;;;;10545120;28;20212;-80
2022/09/06 21:54:52;;;;;;;9.30;6.37;;;21.40;99.90;;;;;;10555856;28;20306;-80
2022/09/06 21:59:55;;;;;;;5.43;4.93;;;21.40;99.90;;;;;;10552915;28;20563;-80
2022/09/06 22:04:58;;;;;;;6.30;5.57;;;21.40;99.90;;;;;;10545269;28;20273;-81
2022/09/06 22:10:00;;;;;;;6.07;5.60;;;21.40;99.90;;;;;;10535417;28;20261;-81
2022/09/06 22:15:03;;;;;;;6.00;5.53;;;21.30;99.90;;;;;;10552950;28;20240;-80
2022/09/06 22:20:08;;;;;;;6.43;5.93;;;21.30;99.90;;;;;;10546151;28;20196;-81
2022/09/06 22:25:10;;;;;;;6.17;5.67;;;21.30;99.90;;;;;;10552142;28;20222;-81
2022/09/06 22:30:13;;;;;;;6.00;5.60;;;21.30;99.90;;;;;;10575451;28;20273;-81
2022/09/06 22:35:17;;;;;;;6.30;5.80;;;21.20;99.90;;;;;;10554889;28;20245;-80
2022/09/06 22:40:19;;;;;;;6.70;5.60;;;21.20;99.90;;;;;;10555616;28;20206;-81
2022/09/06 22:45:21;;;;;;;5.33;4.93;;;21.20;99.90;;;;;;10550951;28;20245;-80
2022/09/06 22:50:24;;;;;;;5.90;5.50;;;21.20;99.90;;;;;;10546183;28;20215;-81
2022/09/06 22:55:27;;;;;;;5.60;5.20;;;21.20;99.90;;;;;;10555582;28;20223;-79
2022/09/06 23:00:29;;;;;;;5.63;5.30;;;21.20;99.90;;;;;;10545708;28;20207;-80
2022/09/06 23:05:32;;;;;;;5.37;5.13;;;21.10;99.90;;;;;;10551860;28;20708;-81
2022/09/06 23:10:39;;;;;;;5.77;5.17;;;21.10;99.90;;;;;;10547831;28;20208;-81
2022/09/06 23:15:44;;;;;;;4.80;4.50;;;21.10;99.90;;;;;;10546695;28;20606;-80
2022/09/06 23:20:48;;;;;;;6.50;4.73;;;21.10;99.90;;;;;;10534576;28;20180;-81
2022/09/06 23:32:09;;;;;;;10.67;4.73;;;21.10;99.90;;;;;;10504618;28;20271;-80
2022/09/06 23:37:13;;;;;;;4.40;4.20;;;21.10;99.90;;;;;;10525215;28;20207;-79
2022/09/06 23:42:15;;;;;;;4.20;3.83;;;21.10;99.90;;;;;;10537394;28;20220;-79
2022/09/06 23:47:17;;;;;;;4.93;4.33;;;21.10;99.90;;;;;;10536066;28;20679;-80
2022/09/06 23:52:21;;;;;;;4.00;3.80;;;21.20;99.90;;;;;;10537592;28;20238;-79
2022/09/06 23:57:23;;;;;;;3.90;3.60;;;21.20;99.90;;;;;;10536926;28;20280;-79
